createdAt,value
2018-03-27T00:02:25.818Z,11.98
2018-03-27T00:05:29.181Z,14.13
2018-03-27T00:08:32.639Z,10.27
2018-03-27T00:11:35.975Z,14.15
2018-03-27T00:14:39.293Z,11.30
2018-03-27T00:17:42.604Z,13.30
2018-03-27T00:20:45.932Z,10.90
2018-03-27T00:23:50.464Z,10.05
2018-03-27T00:27:00.285Z,14.55
2018-03-27T00:30:15.497Z,8.75
2018-03-27T00:33:31.416Z,11.85
2018-03-27T00:36:46.931Z,5.25
2018-03-27T00:40:02.134Z,8.23
2018-03-27T00:43:05.410Z,7.20
2018-03-27T00:46:08.711Z,11.35
2018-03-27T00:49:11.989Z,9.07
2018-03-27T00:52:15.249Z,12.85
2018-03-27T00:55:18.589Z,17.62
2018-03-27T00:58:21.878Z,7.28
2018-03-27T01:01:25.191Z,8.35
2018-03-27T01:04:28.467Z,9.77
2018-03-27T01:07:31.742Z,9.30
2018-03-27T01:10:35.000Z,7.10
2018-03-27T01:13:38.287Z,10.23
2018-03-27T01:16:41.591Z,11.52
2018-03-27T01:19:44.887Z,10.30
2018-03-27T01:22:48.952Z,6.87
2018-03-27T01:25:52.225Z,11.98
2018-03-27T01:28:55.629Z,8.68
2018-03-27T01:32:00.255Z,9.52
2018-03-27T01:35:03.694Z,11.60
2018-03-27T01:38:07.107Z,10.85
2018-03-27T01:41:10.842Z,10.68
2018-03-27T01:44:14.320Z,9.43
2018-03-27T01:47:18.420Z,14.77
2018-03-27T01:50:21.860Z,9.57
2018-03-27T01:53:25.954Z,10.95
2018-03-27T01:56:29.289Z,9.02
2018-03-27T01:59:32.577Z,11.07
2018-03-27T02:02:35.944Z,14.77
2018-03-27T02:05:39.724Z,14.90
2018-03-27T02:08:43.452Z,8.13
2018-03-27T02:11:52.685Z,10.82
2018-03-27T02:15:03.022Z,13.23
2018-03-27T02:18:12.951Z,11.73
2018-03-27T02:21:21.929Z,8.90
2018-03-27T02:24:26.120Z,9.80
2018-03-27T02:27:30.714Z,12.00
2018-03-27T02:33:44.644Z,11.10
2018-03-27T02:36:48.280Z,9.98
2018-03-27T02:39:51.678Z,10.35
2018-03-27T02:42:55.163Z,13.88
2018-03-27T02:45:58.559Z,10.68
2018-03-27T02:49:02.728Z,13.07
2018-03-27T02:52:06.914Z,11.65
2018-03-27T02:55:10.494Z,16.85
2018-03-27T02:58:14.613Z,10.07
2018-03-27T03:01:19.141Z,14.02
2018-03-27T03:04:22.831Z,9.80
2018-03-27T03:07:26.457Z,9.63
2018-03-27T03:10:31.162Z,10.35
2018-03-27T03:13:34.650Z,12.50
2018-03-27T03:16:38.896Z,11.65
2018-03-27T03:19:43.655Z,14.82
2018-03-27T03:22:47.138Z,12.23
2018-03-27T03:25:50.845Z,12.32
2018-03-27T03:28:54.296Z,10.27
2018-03-27T03:31:57.706Z,16.80
2018-03-27T03:35:01.157Z,11.70
2018-03-27T03:38:04.570Z,18.70
2018-03-27T03:41:07.881Z,12.57
2018-03-27T03:44:11.256Z,13.85
2018-03-27T03:47:14.660Z,11.07
2018-03-27T03:50:18.072Z,13.15
2018-03-27T03:53:21.507Z,14.63
2018-03-27T03:56:24.924Z,13.07
2018-03-27T03:59:28.382Z,12.02
2018-03-27T04:02:32.284Z,12.18
2018-03-27T04:05:35.812Z,14.87
2018-03-27T04:08:40.029Z,21.23
2018-03-27T04:11:43.403Z,13.77
2018-03-27T04:14:47.138Z,10.90
2018-03-27T04:17:50.843Z,16.12
2018-03-27T04:20:54.653Z,14.45
2018-03-27T04:23:58.933Z,13.82
2018-03-27T04:27:02.636Z,15.20
2018-03-27T04:30:07.829Z,11.12
2018-03-27T04:33:11.935Z,10.00
2018-03-27T04:36:15.438Z,13.77
2018-03-27T04:39:19.821Z,16.73
2018-03-27T04:42:23.470Z,17.08
2018-03-27T04:45:26.921Z,17.92
2018-03-27T04:48:30.334Z,19.23
2018-03-27T04:51:33.796Z,15.20
2018-03-27T04:54:37.235Z,12.35
2018-03-27T04:57:40.520Z,17.70
2018-03-27T05:00:44.236Z,14.82
2018-03-27T05:03:47.534Z,12.18
2018-03-27T05:06:50.975Z,18.42
2018-03-27T05:09:54.534Z,16.00
2018-03-27T05:12:58.685Z,18.15
2018-03-27T05:16:02.813Z,20.55
2018-03-27T05:19:06.277Z,19.80
2018-03-27T05:22:09.770Z,11.70
2018-03-27T05:25:13.165Z,16.33
2018-03-27T05:28:16.676Z,18.30
2018-03-27T05:31:21.227Z,12.32
2018-03-27T05:34:24.523Z,15.10
2018-03-27T05:37:28.393Z,18.45
2018-03-27T05:40:33.081Z,14.70
2018-03-27T05:43:36.800Z,18.10
2018-03-27T05:46:40.207Z,15.23
2018-03-27T05:49:45.304Z,15.88
2018-03-27T05:52:48.680Z,22.25
2018-03-27T05:55:52.071Z,15.98
2018-03-27T05:58:55.442Z,16.73
2018-03-27T06:01:58.869Z,19.05
2018-03-27T06:05:03.153Z,15.18
2018-03-27T06:08:06.534Z,17.12
2018-03-27T06:11:10.588Z,17.23
2018-03-27T06:14:14.922Z,18.35
2018-03-27T06:17:18.686Z,16.77
2018-03-27T06:20:22.556Z,20.00
2018-03-27T06:23:26.179Z,15.90
2018-03-27T06:26:29.510Z,16.10
2018-03-27T06:29:33.336Z,18.90
2018-03-27T06:32:37.396Z,19.40
2018-03-27T06:35:40.692Z,14.52
2018-03-27T06:38:43.990Z,17.77
2018-03-27T06:41:47.313Z,11.35
2018-03-27T06:44:50.574Z,13.52
2018-03-27T06:47:53.854Z,18.02
2018-03-27T06:50:57.126Z,17.98
2018-03-27T06:54:00.493Z,19.10
2018-03-27T06:57:04.846Z,19.75
2018-03-27T07:00:08.259Z,16.37
2018-03-27T07:03:11.604Z,17.87
2018-03-27T07:06:14.939Z,16.37
2018-03-27T07:09:19.782Z,17.62
2018-03-27T07:12:23.148Z,19.50
2018-03-27T07:15:26.403Z,28.15
2018-03-27T07:18:29.860Z,22.70
2018-03-27T07:21:33.122Z,21.83
2018-03-27T07:24:36.658Z,23.62
2018-03-27T07:27:40.495Z,20.02
2018-03-27T07:30:43.792Z,23.02
2018-03-27T07:33:47.090Z,25.70
2018-03-27T07:36:51.162Z,18.83
2018-03-27T07:39:54.501Z,16.05
2018-03-27T07:42:57.793Z,16.58
2018-03-27T07:46:01.097Z,23.80
2018-03-27T07:49:04.389Z,20.75
2018-03-27T07:52:07.729Z,26.42
2018-03-27T07:55:11.036Z,23.02
2018-03-27T07:58:14.383Z,22.17
2018-03-27T08:01:17.682Z,22.20
2018-03-27T08:04:20.995Z,21.13
2018-03-27T08:07:24.411Z,28.17
2018-03-27T08:10:27.714Z,19.90
2018-03-27T08:13:31.043Z,21.07
2018-03-27T08:16:34.440Z,22.00
2018-03-27T08:19:38.069Z,18.83
2018-03-27T08:22:41.379Z,27.17
2018-03-27T08:25:44.968Z,21.53
2018-03-27T08:28:49.098Z,20.03
2018-03-27T08:31:52.423Z,20.13
2018-03-27T08:34:55.833Z,25.70
2018-03-27T08:37:59.177Z,20.43
2018-03-27T08:41:03.232Z,22.10
2018-03-27T08:44:06.535Z,24.57
2018-03-27T08:47:09.828Z,28.47
2018-03-27T08:50:13.156Z,21.57
2018-03-27T08:53:17.206Z,39.30
2018-03-27T08:56:20.849Z,22.80
2018-03-27T08:59:24.129Z,23.73
2018-03-27T09:02:27.437Z,26.30
2018-03-27T09:05:30.748Z,22.67
2018-03-27T09:08:34.103Z,19.40
2018-03-27T09:11:37.418Z,19.97
2018-03-27T09:14:40.743Z,22.67
2018-03-27T09:17:44.025Z,37.47
2018-03-27T09:20:47.319Z,28.37
2018-03-27T09:23:50.677Z,21.93
2018-03-27T09:26:54.117Z,23.03
2018-03-27T09:29:57.415Z,25.87
2018-03-27T09:33:00.712Z,21.10
2018-03-27T09:36:04.055Z,28.20
2018-03-27T09:39:07.412Z,25.33
2018-03-27T09:42:10.712Z,21.30
2018-03-27T09:45:14.062Z,20.73
2018-03-27T09:48:18.125Z,24.67
2018-03-27T09:51:21.473Z,20.57
2018-03-27T09:54:26.449Z,21.57
2018-03-27T09:57:29.792Z,23.83
2018-03-27T10:00:39.489Z,26.90
2018-03-27T10:03:42.797Z,21.57
2018-03-27T10:06:46.044Z,20.10
2018-03-27T10:09:50.120Z,21.63
2018-03-27T10:12:53.368Z,19.83
2018-03-27T10:15:57.412Z,19.10
2018-03-27T10:19:00.696Z,15.87
2018-03-27T10:22:04.337Z,17.97
2018-03-27T10:25:07.628Z,21.47
2018-03-27T10:28:11.766Z,18.27
2018-03-27T10:31:15.820Z,22.30
2018-03-27T10:34:19.140Z,23.53
2018-03-27T10:37:22.456Z,17.63
2018-03-27T10:40:25.730Z,17.73
2018-03-27T10:43:29.130Z,21.23
2018-03-27T10:46:32.443Z,19.43
2018-03-27T10:49:35.746Z,17.33
2018-03-27T10:52:39.044Z,19.07
2018-03-27T10:55:43.181Z,16.33
2018-03-27T10:58:52.162Z,21.43
2018-03-27T11:05:36.829Z,20.47
2018-03-27T11:08:40.123Z,19.70
2018-03-27T11:11:43.770Z,18.93
2018-03-27T11:14:47.054Z,18.20
2018-03-27T11:17:50.408Z,18.47
2018-03-27T11:20:53.664Z,18.17
2018-03-27T11:23:56.957Z,16.23
2018-03-27T11:27:01.062Z,19.33
2018-03-27T11:30:04.347Z,15.43
2018-03-27T11:33:07.624Z,19.80
2018-03-27T11:36:10.967Z,23.60
2018-03-27T11:39:15.070Z,15.73
2018-03-27T11:42:18.414Z,16.33
2018-03-27T11:45:22.448Z,15.37
2018-03-27T11:48:25.804Z,20.00
2018-03-27T11:51:29.172Z,20.67
2018-03-27T11:54:32.667Z,19.50
2018-03-27T11:57:35.987Z,23.43
2018-03-27T12:00:39.556Z,15.73
2018-03-27T12:03:42.893Z,15.60
2018-03-27T12:06:46.314Z,19.17
2018-03-27T12:09:50.365Z,14.13
2018-03-27T12:12:53.699Z,11.70
2018-03-27T12:15:57.045Z,16.17
2018-03-27T12:19:00.394Z,13.10
2018-03-27T12:22:04.522Z,17.43
2018-03-27T12:25:07.818Z,12.87
2018-03-27T12:28:11.141Z,11.50
2018-03-27T12:31:14.478Z,14.40
2018-03-27T12:34:17.799Z,12.00
2018-03-27T12:37:21.162Z,10.87
2018-03-27T12:40:25.176Z,9.23
2018-03-27T12:43:28.610Z,14.67
2018-03-27T12:46:31.905Z,18.70
2018-03-27T12:49:35.232Z,11.73
2018-03-27T12:52:39.301Z,9.17
2018-03-27T12:55:42.618Z,13.90
2018-03-27T12:58:45.931Z,11.60
2018-03-27T13:01:49.987Z,11.77
2018-03-27T13:04:53.444Z,9.23
2018-03-27T13:07:57.524Z,11.23
2018-03-27T13:11:00.847Z,9.87
2018-03-27T13:14:04.130Z,13.13
2018-03-27T13:17:07.424Z,9.90
2018-03-27T13:20:10.771Z,11.77
2018-03-27T13:23:14.077Z,10.17
2018-03-27T13:26:18.115Z,9.80
2018-03-27T13:29:21.482Z,9.03
2018-03-27T13:32:24.870Z,9.87
2018-03-27T13:35:28.387Z,11.67
2018-03-27T13:38:31.719Z,12.47
2018-03-27T13:41:35.041Z,12.33
2018-03-27T13:44:38.308Z,12.17
2018-03-27T13:47:41.606Z,10.43
2018-03-27T13:50:44.888Z,11.50
2018-03-27T13:53:48.194Z,9.57
2018-03-27T13:56:51.487Z,8.20
2018-03-27T13:59:54.795Z,8.90
2018-03-27T14:02:58.169Z,9.93
2018-03-27T14:06:01.493Z,8.73
2018-03-27T14:09:05.673Z,8.77
2018-03-27T14:12:08.976Z,10.27
2018-03-27T14:15:12.232Z,9.23
2018-03-27T14:18:16.298Z,14.50
2018-03-27T14:21:19.576Z,8.67
2018-03-27T14:24:22.897Z,11.33
2018-03-27T14:27:26.237Z,8.27
2018-03-27T14:30:30.393Z,8.50
2018-03-27T14:33:33.594Z,14.63
2018-03-27T14:36:36.888Z,11.07
2018-03-27T14:39:40.970Z,9.27
2018-03-27T14:42:45.058Z,8.97
2018-03-27T14:45:48.385Z,9.03
2018-03-27T14:48:52.438Z,12.90
2018-03-27T14:51:55.764Z,13.80
2018-03-27T14:54:59.067Z,9.20
2018-03-27T14:58:02.729Z,11.10
2018-03-27T15:01:06.210Z,8.10
2018-03-27T15:04:09.594Z,11.20
2018-03-27T15:07:13.008Z,11.70
2018-03-27T15:10:17.078Z,10.00
2018-03-27T15:13:20.379Z,13.10
2018-03-27T15:16:23.673Z,10.83
2018-03-27T15:19:27.051Z,11.57
2018-03-27T15:22:30.346Z,11.33
2018-03-27T15:25:33.616Z,11.50
2018-03-27T15:28:37.647Z,12.20
2018-03-27T15:31:40.939Z,13.90
2018-03-27T15:34:44.339Z,13.17
2018-03-27T15:37:47.747Z,14.10
2018-03-27T15:40:51.058Z,13.07
2018-03-27T15:43:54.364Z,11.67
2018-03-27T15:46:57.667Z,19.13
2018-03-27T15:50:00.968Z,15.47
2018-03-27T15:53:04.267Z,15.80
2018-03-27T15:56:07.565Z,13.03
2018-03-27T15:59:10.881Z,14.43
2018-03-27T16:02:14.981Z,13.50
2018-03-27T16:05:18.260Z,17.37
2018-03-27T16:08:21.551Z,12.17
2018-03-27T16:11:24.819Z,17.23
2018-03-27T16:14:28.187Z,14.80
2018-03-27T16:17:31.488Z,14.63
2018-03-27T16:20:34.802Z,19.13
2018-03-27T16:23:38.813Z,14.90
2018-03-27T16:26:42.189Z,15.87
2018-03-27T16:29:45.458Z,18.87
2018-03-27T16:32:48.833Z,16.00
2018-03-27T16:35:52.090Z,16.53
2018-03-27T16:38:56.189Z,16.80
2018-03-27T16:41:59.502Z,19.27
2018-03-27T16:45:03.632Z,16.90
2018-03-27T16:48:06.954Z,17.37
2018-03-27T16:51:10.239Z,16.23
2018-03-27T16:54:13.509Z,18.10
2018-03-27T16:57:16.815Z,17.13
2018-03-27T17:00:20.060Z,18.80
2018-03-27T17:03:24.496Z,16.53
2018-03-27T17:06:27.857Z,18.00
2018-03-27T17:09:31.233Z,15.03
2018-03-27T17:12:34.712Z,15.27
2018-03-27T17:15:39.000Z,15.93
2018-03-27T17:18:42.276Z,13.87
2018-03-27T17:21:45.663Z,19.37
2018-03-27T17:24:48.943Z,18.13
2018-03-27T17:27:53.307Z,19.63
2018-03-27T17:30:56.613Z,18.83
2018-03-27T17:33:59.903Z,18.47
2018-03-27T17:37:03.869Z,15.40
2018-03-27T17:40:08.299Z,13.10
2018-03-27T17:43:11.625Z,16.90
2018-03-27T17:46:14.972Z,15.63
2018-03-27T17:49:19.152Z,21.90
2018-03-27T17:52:22.483Z,18.50
2018-03-27T17:55:25.862Z,14.90
2018-03-27T17:58:29.225Z,18.03
2018-03-27T18:01:32.525Z,16.13
2018-03-27T18:04:35.979Z,13.97
2018-03-27T18:07:40.040Z,15.70
2018-03-27T18:10:43.414Z,19.23
2018-03-27T18:13:46.851Z,19.20
2018-03-27T18:16:50.266Z,28.38
2018-03-27T18:19:53.611Z,15.20
2018-03-27T18:22:57.001Z,13.13
2018-03-27T18:26:00.534Z,17.20
2018-03-27T18:29:03.887Z,18.15
2018-03-27T18:32:07.996Z,16.40
2018-03-27T18:35:12.280Z,15.37
2018-03-27T18:38:15.657Z,38.97
2018-03-27T18:41:19.009Z,19.60
2018-03-27T18:44:22.297Z,18.67
2018-03-27T18:47:26.424Z,16.87
2018-03-27T18:50:29.876Z,15.98
2018-03-27T18:53:33.234Z,18.00
2018-03-27T18:56:36.711Z,18.40
2018-03-27T18:59:40.788Z,14.13
2018-03-27T19:02:44.174Z,26.10
2018-03-27T19:05:47.635Z,23.77
2018-03-27T19:08:51.832Z,25.88
2018-03-27T19:11:55.973Z,20.58
2018-03-27T19:14:59.279Z,16.98
2018-03-27T19:18:02.706Z,21.35
2018-03-27T19:21:06.135Z,26.23
2018-03-27T19:24:09.444Z,22.83
2018-03-27T19:27:12.806Z,24.98
2018-03-27T19:30:16.159Z,24.20
2018-03-27T19:33:20.336Z,20.60
2018-03-27T19:36:23.692Z,20.20
2018-03-27T19:39:28.021Z,22.13
2018-03-27T19:42:32.106Z,23.65
2018-03-27T19:45:35.453Z,22.95
2018-03-27T19:48:38.814Z,24.08
2018-03-27T19:51:42.944Z,27.62
2018-03-27T19:54:47.139Z,24.83
2018-03-27T19:57:51.803Z,28.35
2018-03-27T20:00:55.208Z,30.55
2018-03-27T20:03:58.648Z,26.85
2018-03-27T20:07:02.016Z,24.87
2018-03-27T20:10:06.066Z,27.42
2018-03-27T20:13:09.449Z,21.33
2018-03-27T20:16:12.829Z,27.60
2018-03-27T20:19:16.211Z,23.90
2018-03-27T20:22:19.668Z,22.60
2018-03-27T20:25:23.036Z,24.70
2018-03-27T20:28:26.511Z,22.90
2018-03-27T20:31:29.939Z,25.37
2018-03-27T20:34:33.392Z,25.10
2018-03-27T20:37:37.542Z,27.70
2018-03-27T20:40:40.882Z,28.38
2018-03-27T20:43:45.193Z,25.35
2018-03-27T20:46:48.709Z,25.37
2018-03-27T20:49:52.108Z,27.00
2018-03-27T20:52:55.426Z,24.70
2018-03-27T20:55:59.092Z,29.45
2018-03-27T20:59:02.471Z,28.95
2018-03-27T21:02:06.409Z,26.90
2018-03-27T21:05:10.582Z,31.20
2018-03-27T21:08:14.055Z,32.10
2018-03-27T21:11:18.232Z,31.15
2018-03-27T21:14:21.615Z,30.60
2018-03-27T21:17:25.167Z,28.95
2018-03-27T21:20:28.986Z,33.75
2018-03-27T21:23:32.469Z,27.52
2018-03-27T21:26:35.822Z,24.65
2018-03-27T21:29:39.143Z,30.12
2018-03-27T21:32:43.470Z,29.60
2018-03-27T21:35:46.844Z,29.42
2018-03-27T21:38:50.211Z,31.65
2018-03-27T21:41:53.896Z,30.40
2018-03-27T21:44:57.979Z,29.12
2018-03-27T21:48:01.324Z,29.12
2018-03-27T21:51:04.707Z,28.80
2018-03-27T21:54:08.103Z,30.42
2018-03-27T21:57:12.206Z,34.20
2018-03-27T22:00:15.536Z,30.80
2018-03-27T22:03:19.661Z,26.90
2018-03-27T22:06:25.786Z,28.12
2018-03-27T22:09:29.148Z,28.23
2018-03-27T22:12:32.432Z,32.08
2018-03-27T22:15:35.830Z,31.77
2018-03-27T22:18:39.145Z,31.77
2018-03-27T22:21:42.533Z,31.58
2018-03-27T22:24:45.907Z,31.65
2018-03-27T22:27:50.149Z,28.23
2018-03-27T22:30:53.854Z,31.15
2018-03-27T22:33:57.284Z,34.88
2018-03-27T22:37:00.608Z,32.65
2018-03-27T22:40:04.034Z,29.63
2018-03-27T22:43:07.349Z,30.60
2018-03-27T22:46:10.723Z,31.55
2018-03-27T22:49:14.063Z,26.98
2018-03-27T22:52:17.437Z,31.23
2018-03-27T22:55:20.992Z,28.48
2018-03-27T22:58:26.657Z,31.15
2018-03-27T23:01:30.616Z,35.90
2018-03-27T23:04:35.110Z,34.70
2018-03-27T23:07:38.534Z,34.63
2018-03-27T23:10:42.132Z,34.63
2018-03-27T23:13:46.708Z,28.42
2018-03-27T23:16:50.134Z,36.30
2018-03-27T23:19:53.509Z,32.78
2018-03-27T23:22:56.969Z,32.58
2018-03-27T23:26:00.403Z,34.83
2018-03-27T23:29:03.891Z,34.22
2018-03-27T23:32:07.562Z,32.70
2018-03-27T23:35:11.033Z,35.20
2018-03-27T23:38:15.563Z,28.98
2018-03-27T23:41:18.883Z,36.38
2018-03-27T23:44:22.296Z,31.45
2018-03-27T23:47:25.638Z,33.63
2018-03-27T23:50:30.319Z,29.80
2018-03-27T23:53:33.661Z,29.40
2018-03-27T23:56:37.037Z,31.48
2018-03-27T23:59:40.515Z,31.58
